Time;durP1;ratioP1;P1;durP2;ratioP2;P2;SDS_P1;SDS_P2;PMS_P1;PMS_P2;Temp;Humidity;BMP_temperature;BMP_pressure;BME280_temperature;BME280_humidity;BME280_pressure;Samples;Min_cycle;Max_cycle;Signal;HPM_P1;HPM_P2
2024/03/20 00:00:32;;;;;;;23.83;11.30;;;5.30;99.10;;;;;;5091411;28;20260;-67
2024/03/20 00:03:00;;;;;;;25.63;12.23;;;5.20;99.30;;;;;;5092587;28;20236;-67
2024/03/20 00:05:27;;;;;;;21.70;10.10;;;5.30;99.20;;;;;;5091936;28;20226;-66
2024/03/20 00:07:55;;;;;;;21.57;9.63;;;5.20;99.20;;;;;;5107560;28;20685;-67
2024/03/20 00:10:23;;;;;;;18.40;8.13;;;5.20;99.20;;;;;;5090851;28;20221;-66
2024/03/20 00:12:50;;;;;;;15.77;7.23;;;5.20;99.30;;;;;;5091584;28;20281;-67
2024/03/20 00:15:18;;;;;;;16.63;9.33;;;5.20;99.30;;;;;;5091824;28;20206;-66
2024/03/20 00:17:47;;;;;;;13.83;7.90;;;5.20;99.40;;;;;;5092140;28;20268;-66
2024/03/20 00:20:15;;;;;;;12.97;6.90;;;5.20;99.30;;;;;;5091366;28;20190;-66
2024/03/20 00:22:42;;;;;;;17.87;7.50;;;5.10;99.30;;;;;;5088894;28;20204;-66
2024/03/20 00:25:10;;;;;;;13.73;6.37;;;5.10;99.40;;;;;;5092188;28;20309;-66
2024/03/20 00:27:37;;;;;;;10.47;6.13;;;5.10;99.50;;;;;;5090886;28;20281;-66
2024/03/20 00:30:06;;;;;;;12.50;6.20;;;5.00;99.50;;;;;;5091805;28;20218;-66
2024/03/20 00:32:33;;;;;;;12.03;6.03;;;5.00;99.60;;;;;;5091472;28;20252;-66
2024/03/20 00:35:00;;;;;;;11.63;5.67;;;5.00;99.60;;;;;;5092012;28;20597;-66
2024/03/20 00:37:30;;;;;;;10.13;5.17;;;5.00;99.70;;;;;;5085210;28;20323;-67
2024/03/20 00:39:57;;;;;;;8.17;4.80;;;5.00;99.70;;;;;;5091974;28;20273;-67
2024/03/20 00:42:25;;;;;;;7.97;4.40;;;5.10;99.80;;;;;;5106098;28;20287;-67
2024/03/20 00:44:52;;;;;;;6.97;4.20;;;5.10;99.70;;;;;;5092138;28;20367;-67
2024/03/20 00:47:20;;;;;;;9.33;4.50;;;5.20;99.70;;;;;;5091102;28;20229;-66
2024/03/20 00:49:48;;;;;;;8.83;4.73;;;5.20;99.70;;;;;;5091714;28;20205;-67
2024/03/20 00:52:15;;;;;;;8.83;4.40;;;5.20;99.70;;;;;;5090783;28;20631;-67
2024/03/20 00:54:45;;;;;;;13.83;7.37;;;5.20;99.60;;;;;;5090281;28;20235;-67
2024/03/20 00:57:12;;;;;;;12.43;6.57;;;5.20;99.70;;;;;;5088406;28;20314;-66
2024/03/20 00:59:39;;;;;;;9.87;5.80;;;5.20;99.60;;;;;;5091934;28;20213;-66
2024/03/20 01:02:07;;;;;;;10.13;5.50;;;5.20;99.60;;;;;;5090931;28;20208;-66
2024/03/20 01:04:34;;;;;;;9.57;5.13;;;5.20;99.60;;;;;;5091975;28;20238;-67
2024/03/20 01:07:01;;;;;;;8.30;4.80;;;5.10;99.60;;;;;;5091139;28;20660;-66
2024/03/20 01:09:28;;;;;;;10.87;5.20;;;5.10;99.70;;;;;;5090524;28;20209;-65
2024/03/20 01:11:56;;;;;;;9.23;5.20;;;5.10;99.70;;;;;;5091114;28;20209;-66
2024/03/20 01:14:23;;;;;;;10.90;5.80;;;5.00;99.80;;;;;;5092387;28;20609;-66
2024/03/20 01:16:51;;;;;;;10.53;5.20;;;5.00;99.90;;;;;;5091517;28;20192;-66
2024/03/20 01:19:18;;;;;;;10.93;5.33;;;5.00;99.90;;;;;;5091727;28;20257;-66
2024/03/20 01:21:46;;;;;;;10.53;5.30;;;4.90;99.90;;;;;;5091077;28;20653;-66
2024/03/20 01:24:13;;;;;;;8.30;4.90;;;4.90;99.90;;;;;;5102890;28;20197;-66
2024/03/20 01:26:40;;;;;;;12.83;5.80;;;4.90;99.90;;;;;;5114560;28;20207;-66
2024/03/20 01:29:09;;;;;;;11.60;6.47;;;4.90;99.90;;;;;;5086003;28;20614;-66
2024/03/20 01:31:36;;;;;;;13.23;7.13;;;4.90;99.90;;;;;;5091394;28;20203;-66
2024/03/20 01:34:03;;;;;;;12.37;6.77;;;4.90;99.90;;;;;;5095288;28;20687;-65
2024/03/20 01:36:30;;;;;;;17.83;9.47;;;4.90;99.90;;;;;;5095117;28;20225;-66
2024/03/20 01:38:57;;;;;;;24.00;11.07;;;4.90;99.90;;;;;;5095207;28;20204;-66
2024/03/20 01:41:24;;;;;;;22.70;10.27;;;5.00;99.90;;;;;;5094577;28;20226;-66
2024/03/20 01:43:54;;;;;;;16.37;8.33;;;4.90;99.90;;;;;;5094943;28;20271;-66
2024/03/20 01:46:32;;;;;;;12.83;7.07;;;4.90;99.90;;;;;;5111188;28;20579;-66
2024/03/20 01:49:00;;;;;;;14.73;7.20;;;4.90;99.90;;;;;;5092586;28;20239;-67
2024/03/20 01:51:28;;;;;;;13.17;6.10;;;4.80;99.90;;;;;;5094559;28;20202;-67
2024/03/20 01:53:57;;;;;;;11.20;5.90;;;4.80;99.90;;;;;;5094626;28;20196;-67
2024/03/20 01:56:24;;;;;;;11.00;5.77;;;4.80;99.90;;;;;;5094609;28;20196;-67
2024/03/20 01:58:53;;;;;;;11.27;6.13;;;4.80;99.90;;;;;;5094308;28;20200;-66
2024/03/20 02:01:20;;;;;;;9.93;6.23;;;4.80;99.90;;;;;;5093663;28;20197;-67
2024/03/20 02:03:48;;;;;;;13.87;7.63;;;4.70;99.90;;;;;;5094586;28;20233;-67
2024/03/20 02:06:23;;;;;;;10.40;6.10;;;4.70;99.90;;;;;;5094044;28;20219;-67
2024/03/20 02:08:51;;;;;;;12.17;7.03;;;4.70;99.90;;;;;;5094862;28;20252;-67
2024/03/20 02:11:19;;;;;;;15.07;7.40;;;4.70;99.90;;;;;;5093656;28;20193;-66
2024/03/20 02:13:46;;;;;;;21.20;10.53;;;4.80;99.90;;;;;;5094314;28;20202;-66
2024/03/20 02:16:14;;;;;;;24.20;11.10;;;4.80;99.90;;;;;;5093781;28;20640;-67
2024/03/20 02:18:41;;;;;;;18.07;9.00;;;4.80;99.90;;;;;;5094644;28;20288;-67
2024/03/20 02:21:10;;;;;;;15.73;7.63;;;4.80;99.90;;;;;;5093447;28;20193;-67
2024/03/20 02:23:37;;;;;;;15.67;7.90;;;4.70;99.90;;;;;;5094725;28;20712;-67
2024/03/20 02:26:06;;;;;;;17.60;8.73;;;4.70;99.90;;;;;;5093556;28;20293;-66
2024/03/20 02:28:33;;;;;;;18.47;8.33;;;4.70;99.90;;;;;;5093236;28;20193;-66
2024/03/20 02:31:01;;;;;;;18.53;9.33;;;4.70;99.90;;;;;;5092873;28;20197;-66
2024/03/20 02:33:28;;;;;;;15.57;8.43;;;4.80;99.90;;;;;;5094477;28;20197;-67
2024/03/20 02:35:55;;;;;;;14.00;7.00;;;4.80;99.90;;;;;;5093656;28;20246;-67
2024/03/20 02:38:24;;;;;;;13.27;7.20;;;4.80;99.90;;;;;;5093779;28;20197;-67
2024/03/20 02:40:54;;;;;;;13.47;6.87;;;4.70;99.90;;;;;;5093336;28;20223;-66
2024/03/20 02:43:21;;;;;;;12.97;6.43;;;4.70;99.90;;;;;;5093355;28;20221;-67
2024/03/20 02:45:48;;;;;;;13.53;7.13;;;4.70;99.90;;;;;;5093143;28;20250;-67
2024/03/20 02:48:16;;;;;;;13.40;6.97;;;4.60;99.90;;;;;;5109330;28;20204;-67
2024/03/20 02:50:42;;;;;;;13.60;6.17;;;4.60;99.90;;;;;;5093209;28;20270;-66
2024/03/20 02:53:10;;;;;;;13.97;6.90;;;4.60;99.90;;;;;;5093871;28;20190;-67
2024/03/20 02:55:39;;;;;;;20.97;9.33;;;4.60;99.90;;;;;;5092876;28;20672;-67
2024/03/20 02:58:07;;;;;;;20.87;10.77;;;4.70;99.90;;;;;;5091762;28;20296;-67
2024/03/20 03:00:34;;;;;;;16.30;8.33;;;4.70;99.90;;;;;;5092493;28;20209;-67
2024/03/20 03:03:01;;;;;;;14.87;8.13;;;4.80;99.90;;;;;;5093437;28;20223;-67
2024/03/20 03:05:30;;;;;;;18.83;8.83;;;4.80;99.90;;;;;;5093079;28;20245;-67
2024/03/20 03:07:57;;;;;;;23.87;10.90;;;4.80;99.90;;;;;;5090794;28;20261;-66
2024/03/20 03:10:25;;;;;;;22.50;9.43;;;4.90;99.90;;;;;;5091111;28;20295;-67
2024/03/20 03:12:54;;;;;;;22.60;11.03;;;4.90;99.90;;;;;;5092857;28;20208;-67
2024/03/20 03:15:22;;;;;;;22.30;11.10;;;4.90;99.90;;;;;;5092804;28;20191;-67
2024/03/20 03:17:55;;;;;;;22.30;11.80;;;4.90;99.90;;;;;;5093068;28;20213;-66
2024/03/20 03:20:23;;;;;;;23.93;10.93;;;4.80;99.90;;;;;;5092988;28;20534;-66
2024/03/20 03:22:51;;;;;;;27.50;11.70;;;4.90;99.90;;;;;;5093231;28;20192;-67
2024/03/20 03:25:18;;;;;;;27.93;13.10;;;4.90;99.90;;;;;;5092359;28;20275;-66
2024/03/20 03:27:45;;;;;;;27.60;12.60;;;4.90;99.90;;;;;;5092368;28;20197;-67
2024/03/20 03:30:14;;;;;;;29.43;14.20;;;4.80;99.90;;;;;;5087581;28;20236;-67
2024/03/20 03:32:41;;;;;;;32.97;15.93;;;4.80;99.90;;;;;;5092509;28;20192;-66
2024/03/20 03:35:10;;;;;;;29.50;13.77;;;4.80;99.90;;;;;;5092931;28;20223;-66
2024/03/20 03:37:37;;;;;;;32.50;14.90;;;4.80;99.90;;;;;;5092120;28;20663;-66
2024/03/20 03:40:10;;;;;;;34.30;15.67;;;4.70;99.90;;;;;;5091538;28;20279;-67
2024/03/20 03:42:38;;;;;;;33.33;14.60;;;4.70;99.90;;;;;;5091427;28;20200;-67
2024/03/20 03:45:06;;;;;;;33.67;14.93;;;4.70;99.90;;;;;;5108240;28;20236;-67
2024/03/20 03:47:34;;;;;;;25.87;12.80;;;4.70;99.90;;;;;;5091863;28;20193;-67
2024/03/20 03:50:03;;;;;;;26.03;12.57;;;4.60;99.90;;;;;;5093316;28;20205;-67
2024/03/20 03:52:30;;;;;;;32.23;14.33;;;4.60;99.90;;;;;;5092073;28;20238;-67
2024/03/20 03:54:57;;;;;;;31.03;14.60;;;4.60;99.90;;;;;;5091840;28;20200;-67
2024/03/20 03:57:24;;;;;;;31.00;15.50;;;4.60;99.90;;;;;;5091359;28;20196;-68
2024/03/20 03:59:51;;;;;;;37.33;16.20;;;4.50;99.90;;;;;;5093057;28;20295;-67
2024/03/20 04:02:18;;;;;;;34.40;15.73;;;4.50;99.90;;;;;;5091118;28;20207;-68
2024/03/20 04:04:46;;;;;;;36.73;16.63;;;4.50;99.90;;;;;;5092528;28;20234;-67
2024/03/20 04:07:13;;;;;;;36.37;16.53;;;4.50;99.90;;;;;;5091556;28;20697;-67
2024/03/20 04:09:40;;;;;;;43.90;16.43;;;4.40;99.90;;;;;;5092355;28;20212;-66
2024/03/20 04:12:08;;;;;;;42.53;18.87;;;4.40;99.90;;;;;;5090886;28;20196;-65
2024/03/20 04:14:35;;;;;;;35.30;16.93;;;4.40;99.90;;;;;;5084655;28;20635;-66
2024/03/20 04:17:02;;;;;;;34.07;16.03;;;4.30;99.90;;;;;;5091871;28;20246;-67
2024/03/20 04:19:29;;;;;;;37.93;16.83;;;4.30;99.90;;;;;;5092789;28;20562;-66
2024/03/20 04:21:58;;;;;;;38.03;17.63;;;4.30;99.90;;;;;;5091362;28;20275;-66
2024/03/20 04:24:25;;;;;;;37.37;15.50;;;4.30;99.90;;;;;;5091797;28;20253;-66
2024/03/20 04:26:52;;;;;;;32.70;14.27;;;4.20;99.90;;;;;;5091700;28;20200;-67
2024/03/20 04:29:18;;;;;;;31.40;14.20;;;4.20;99.90;;;;;;5090030;28;20600;-67
2024/03/20 04:31:45;;;;;;;30.23;14.40;;;4.20;99.90;;;;;;5106985;28;20307;-65
2024/03/20 04:34:12;;;;;;;26.80;13.07;;;4.20;99.90;;;;;;5090587;28;20284;-67
2024/03/20 04:36:39;;;;;;;36.73;15.93;;;4.20;99.90;;;;;;5090494;28;20231;-67
2024/03/20 04:39:08;;;;;;;32.63;15.60;;;4.20;99.90;;;;;;5091493;28;20203;-66
2024/03/20 04:41:35;;;;;;;28.63;13.70;;;4.20;99.90;;;;;;5091192;28;20194;-66
2024/03/20 04:44:02;;;;;;;28.00;13.20;;;4.20;99.90;;;;;;5090689;28;20605;-65
2024/03/20 04:46:29;;;;;;;22.33;10.83;;;4.10;99.90;;;;;;5091345;28;20367;-67
2024/03/20 04:48:57;;;;;;;28.20;12.67;;;4.10;99.90;;;;;;5091355;28;20208;-67
2024/03/20 04:51:24;;;;;;;24.77;12.30;;;4.20;99.90;;;;;;5090134;28;20709;-67
2024/03/20 04:53:51;;;;;;;27.77;11.67;;;4.20;99.90;;;;;;5091061;28;20192;-67
2024/03/20 04:56:20;;;;;;;30.70;14.33;;;4.20;99.90;;;;;;5090506;28;20192;-67
2024/03/20 04:58:47;;;;;;;26.07;12.07;;;4.10;99.90;;;;;;5091600;28;20192;-67
2024/03/20 05:01:14;;;;;;;21.27;10.67;;;4.10;99.90;;;;;;5088639;28;20189;-67
2024/03/20 05:03:41;;;;;;;20.27;10.40;;;4.00;99.90;;;;;;5088796;28;20243;-66
2024/03/20 05:06:08;;;;;;;18.60;9.17;;;4.00;99.90;;;;;;5090069;28;20192;-66
2024/03/20 05:08:36;;;;;;;21.17;10.40;;;4.00;99.90;;;;;;5091630;28;20196;-66
2024/03/20 05:11:03;;;;;;;24.33;12.07;;;4.00;99.90;;;;;;5090325;28;20216;-66
2024/03/20 05:13:32;;;;;;;19.43;10.70;;;4.00;99.90;;;;;;5083529;28;20192;-65
2024/03/20 05:15:59;;;;;;;22.53;10.50;;;4.00;99.90;;;;;;5090562;28;20261;-66
2024/03/20 05:18:26;;;;;;;15.67;8.57;;;4.00;99.90;;;;;;5091225;28;20204;-67
2024/03/20 05:20:53;;;;;;;15.33;8.23;;;4.00;99.90;;;;;;5090622;28;20192;-67
2024/03/20 05:23:19;;;;;;;27.93;12.10;;;4.00;99.90;;;;;;5091222;28;20241;-67
2024/03/20 05:25:55;;;;;;;27.93;13.00;;;4.00;99.90;;;;;;5108277;28;20196;-66
2024/03/20 05:28:21;;;;;;;24.73;12.53;;;4.10;99.90;;;;;;5090992;28;20268;-66
2024/03/20 05:30:50;;;;;;;21.03;11.90;;;4.00;99.90;;;;;;5090300;28;20204;-66
2024/03/20 05:33:16;;;;;;;23.73;11.93;;;4.00;99.90;;;;;;5091671;28;20275;-67
2024/03/20 05:35:43;;;;;;;23.20;11.43;;;4.00;99.90;;;;;;5090504;28;20192;-66
2024/03/20 05:38:09;;;;;;;19.67;9.67;;;4.00;99.90;;;;;;5091806;28;20539;-67
2024/03/20 05:40:37;;;;;;;14.43;8.77;;;4.00;99.90;;;;;;5090792;28;20245;-67
2024/03/20 05:43:04;;;;;;;13.47;7.77;;;4.00;99.90;;;;;;5091483;28;20618;-67
2024/03/20 05:45:31;;;;;;;15.23;8.97;;;4.00;99.90;;;;;;5091015;28;20524;-67
2024/03/20 05:47:59;;;;;;;19.43;10.60;;;4.00;99.90;;;;;;5091104;28;20592;-67
2024/03/20 05:50:27;;;;;;;18.47;10.27;;;4.00;99.90;;;;;;5091146;28;20220;-64
2024/03/20 05:52:53;;;;;;;20.33;10.20;;;4.00;99.90;;;;;;5090939;28;20193;-65
2024/03/20 05:55:22;;;;;;;20.90;10.33;;;4.10;99.90;;;;;;5091002;28;20643;-66
2024/03/20 05:57:50;;;;;;;23.60;11.27;;;4.10;99.90;;;;;;5091091;28;20223;-65
2024/03/20 06:00:19;;;;;;;33.67;14.47;;;4.20;99.90;;;;;;5091236;28;20544;-65
2024/03/20 06:02:45;;;;;;;35.13;16.47;;;4.20;99.90;;;;;;5091187;28;20185;-66
2024/03/20 06:05:16;;;;;;;40.27;18.20;;;4.30;99.90;;;;;;5092537;28;20204;-66
2024/03/20 06:07:42;;;;;;;36.43;15.20;;;4.40;99.90;;;;;;5091598;28;20220;-66
2024/03/20 06:10:10;;;;;;;33.63;16.00;;;4.30;99.90;;;;;;5090066;28;20212;-66
2024/03/20 06:12:36;;;;;;;27.00;13.87;;;4.40;99.90;;;;;;5089946;28;20627;-66
2024/03/20 06:15:05;;;;;;;26.37;13.07;;;4.40;99.90;;;;;;5089960;28;20180;-66
2024/03/20 06:17:32;;;;;;;33.43;14.43;;;4.40;99.90;;;;;;5091074;28;20197;-65
2024/03/20 06:20:00;;;;;;;25.00;12.97;;;4.50;99.90;;;;;;5094254;28;20188;-66
2024/03/20 06:22:27;;;;;;;25.50;12.10;;;4.50;99.90;;;;;;5092578;28;20581;-66
2024/03/20 06:24:54;;;;;;;21.43;11.57;;;4.50;99.90;;;;;;5091650;28;20285;-67
2024/03/20 06:27:20;;;;;;;24.20;11.77;;;4.50;99.90;;;;;;5093622;28;20196;-67
2024/03/20 06:29:50;;;;;;;25.80;13.33;;;4.40;99.90;;;;;;5094370;28;20193;-66
2024/03/20 06:32:17;;;;;;;27.57;14.10;;;4.40;99.90;;;;;;5093443;28;20193;-67
2024/03/20 06:34:44;;;;;;;22.83;11.60;;;4.40;99.90;;;;;;5094288;28;20188;-67
2024/03/20 06:37:14;;;;;;;21.50;11.43;;;4.40;99.90;;;;;;5092435;28;20295;-65
2024/03/20 06:39:43;;;;;;;24.30;12.00;;;4.30;99.90;;;;;;5094640;28;20190;-65
2024/03/20 06:42:16;;;;;;;24.90;12.33;;;4.30;99.90;;;;;;5093635;28;20279;-66
2024/03/20 06:44:44;;;;;;;29.40;14.37;;;4.20;99.90;;;;;;5093663;28;20857;-66
2024/03/20 06:47:10;;;;;;;31.20;14.40;;;4.20;99.90;;;;;;5093586;28;20200;-66
2024/03/20 06:49:37;;;;;;;22.43;11.87;;;4.30;99.90;;;;;;5094415;28;20203;-67
2024/03/20 06:52:04;;;;;;;26.23;13.53;;;4.40;99.90;;;;;;5092999;28;20204;-67
2024/03/20 06:54:31;;;;;;;26.97;13.03;;;4.40;99.90;;;;;;5075141;28;20211;-66
2024/03/20 06:57:01;;;;;;;31.10;13.90;;;4.50;99.90;;;;;;5084696;28;20200;-66
2024/03/20 06:59:29;;;;;;;31.93;15.07;;;4.50;99.90;;;;;;5088717;28;20199;-66
2024/03/20 07:01:56;;;;;;;29.10;14.27;;;4.60;99.90;;;;;;5083040;28;20627;-66
2024/03/20 07:04:23;;;;;;;22.83;11.20;;;4.60;99.90;;;;;;5088766;28;20220;-66
2024/03/20 07:06:49;;;;;;;34.00;15.90;;;4.60;99.90;;;;;;5088428;28;20243;-66
2024/03/20 07:09:16;;;;;;;31.37;16.60;;;4.60;99.90;;;;;;5090497;28;20652;-67
2024/03/20 07:11:43;;;;;;;34.20;16.57;;;4.60;99.90;;;;;;5076159;28;20307;-66
2024/03/20 07:14:11;;;;;;;32.83;14.93;;;4.70;99.90;;;;;;5085361;28;20721;-67
2024/03/20 07:16:37;;;;;;;30.73;13.47;;;4.80;99.90;;;;;;5089249;28;20254;-67
2024/03/20 07:19:04;;;;;;;38.43;18.23;;;4.70;99.90;;;;;;5094349;28;20240;-67
2024/03/20 07:21:30;;;;;;;32.93;14.77;;;4.80;99.90;;;;;;5090291;28;20188;-67
2024/03/20 07:23:57;;;;;;;26.67;13.40;;;4.80;99.90;;;;;;5090330;28;20199;-65
2024/03/20 07:26:23;;;;;;;29.23;16.03;;;4.90;99.90;;;;;;5088724;28;20223;-65
2024/03/20 07:28:50;;;;;;;29.70;15.27;;;4.90;99.90;;;;;;5103544;28;20212;-65
2024/03/20 07:31:18;;;;;;;29.80;15.87;;;5.00;99.90;;;;;;5082701;28;20288;-65
2024/03/20 07:33:45;;;;;;;33.47;16.50;;;5.10;99.90;;;;;;5082365;28;20205;-65
2024/03/20 07:36:11;;;;;;;29.07;14.80;;;5.10;99.90;;;;;;5088951;28;20262;-65
2024/03/20 07:38:38;;;;;;;34.33;15.77;;;5.20;99.90;;;;;;5090284;28;20184;-65
2024/03/20 07:41:04;;;;;;;26.93;14.90;;;5.30;99.90;;;;;;5103488;28;20207;-65
2024/03/20 07:43:31;;;;;;;29.03;15.73;;;5.30;99.90;;;;;;5089985;28;20292;-65
2024/03/20 07:45:57;;;;;;;31.87;15.47;;;5.40;99.90;;;;;;5091758;28;20210;-66
2024/03/20 07:48:25;;;;;;;29.00;15.60;;;5.50;99.90;;;;;;5096630;28;20236;-66
2024/03/20 07:50:54;;;;;;;31.57;15.77;;;5.50;99.90;;;;;;5103157;28;20765;-66
2024/03/20 07:53:21;;;;;;;29.83;15.80;;;5.60;99.90;;;;;;5089532;28;20185;-66
2024/03/20 07:55:50;;;;;;;24.77;13.30;;;5.70;99.90;;;;;;5094663;28;20200;-67
2024/03/20 07:58:17;;;;;;;24.97;13.23;;;5.90;99.90;;;;;;5092205;28;20217;-66
2024/03/20 08:00:43;;;;;;;23.73;13.60;;;6.00;99.90;;;;;;5095380;28;20195;-66
2024/03/20 08:03:11;;;;;;;30.13;15.13;;;6.20;99.90;;;;;;5087755;28;20329;-66
2024/03/20 08:05:38;;;;;;;27.00;15.10;;;6.50;99.90;;;;;;5090316;28;20205;-66
2024/03/20 08:08:06;;;;;;;26.20;13.47;;;6.80;99.90;;;;;;5088844;28;20677;-66
2024/03/20 08:10:32;;;;;;;25.93;13.43;;;7.20;99.90;;;;;;5087999;28;20219;-65
2024/03/20 08:12:59;;;;;;;28.53;16.60;;;7.60;99.90;;;;;;5088544;28;20657;-66
2024/03/20 08:15:25;;;;;;;34.20;16.87;;;8.40;99.90;;;;;;5089659;28;20224;-66
2024/03/20 08:17:52;;;;;;;24.87;14.57;;;9.10;99.90;;;;;;5090499;28;20665;-66
2024/03/20 08:20:18;;;;;;;28.20;15.07;;;9.40;99.90;;;;;;5085391;28;20211;-66
2024/03/20 08:22:47;;;;;;;27.20;15.93;;;9.80;99.80;;;;;;5088685;28;20200;-66
2024/03/20 08:25:13;;;;;;;30.13;16.57;;;10.40;98.70;;;;;;5086323;28;20193;-66
2024/03/20 08:27:41;;;;;;;27.80;14.53;;;10.80;97.50;;;;;;5087726;28;20230;-66
2024/03/20 08:30:08;;;;;;;29.30;16.07;;;11.00;97.00;;;;;;5089113;28;20194;-66
2024/03/20 08:32:35;;;;;;;25.67;14.83;;;11.20;96.80;;;;;;5088452;28;20228;-66
2024/03/20 08:35:01;;;;;;;26.27;14.77;;;11.40;96.40;;;;;;5098267;28;20217;-66
2024/03/20 08:37:28;;;;;;;27.70;15.27;;;11.70;95.70;;;;;;5080419;28;20253;-66
2024/03/20 08:40:01;;;;;;;29.90;15.73;;;12.10;95.30;;;;;;5082061;28;20198;-67
2024/03/20 08:42:28;;;;;;;29.60;16.80;;;12.40;94.20;;;;;;5086994;28;20193;-66
2024/03/20 08:44:54;;;;;;;24.63;13.40;;;12.70;93.40;;;;;;5089194;28;20674;-67
2024/03/20 08:47:21;;;;;;;19.23;12.23;;;12.90;93.40;;;;;;5090954;28;20684;-67
2024/03/20 08:49:47;;;;;;;31.20;17.43;;;13.10;93.40;;;;;;5088785;28;20782;-66
2024/03/20 08:52:14;;;;;;;27.63;14.73;;;13.30;92.60;;;;;;5103630;28;20741;-66
2024/03/20 08:54:42;;;;;;;24.53;14.87;;;13.70;91.90;;;;;;5087598;28;20713;-66
2024/03/20 08:57:11;;;;;;;25.23;15.47;;;14.10;91.40;;;;;;5087952;28;20192;-66
2024/03/20 08:59:38;;;;;;;20.30;12.70;;;14.00;90.50;;;;;;5088350;28;20706;-66
2024/03/20 09:02:05;;;;;;;24.07;13.07;;;13.50;91.10;;;;;;5087630;28;20181;-66
2024/03/20 09:04:31;;;;;;;28.07;14.87;;;12.90;91.50;;;;;;5086576;28;20235;-66
2024/03/20 09:06:58;;;;;;;24.93;14.07;;;12.20;91.80;;;;;;5087649;28;20191;-66
2024/03/20 09:09:25;;;;;;;27.30;15.60;;;11.80;92.60;;;;;;5088057;28;20197;-66
2024/03/20 09:11:52;;;;;;;26.10;15.27;;;11.30;93.00;;;;;;5087402;28;20204;-66
2024/03/20 09:14:19;;;;;;;25.07;13.93;;;10.90;93.50;;;;;;5087664;28;20195;-66
2024/03/20 09:25:00;;;;;;;23.07;14.20;;;9.70;95.60;;;;;;5115269;27;20322;-63
2024/03/20 09:27:26;;;;;;;24.50;13.77;;;9.40;96.50;;;;;;5117903;28;20597;-64
2024/03/20 09:29:53;;;;;;;30.80;16.77;;;9.20;97.30;;;;;;5118261;28;20190;-63
2024/03/20 09:32:19;;;;;;;26.23;14.90;;;9.10;98.00;;;;;;5120482;28;20223;-62
2024/03/20 09:34:46;;;;;;;27.33;15.73;;;9.00;98.40;;;;;;5113667;27;20598;-63
2024/03/20 09:37:12;;;;;;;26.90;15.67;;;8.90;98.70;;;;;;5123435;27;20196;-63
2024/03/20 09:39:39;;;;;;;34.60;18.07;;;8.90;99.10;;;;;;5126999;27;20182;-62
2024/03/20 09:42:08;;;;;;;28.40;15.50;;;8.80;99.40;;;;;;5128971;27;20202;-63
2024/03/20 09:44:35;;;;;;;32.53;16.97;;;8.80;99.70;;;;;;5132423;27;20188;-63
2024/03/20 09:47:03;;;;;;;26.37;14.90;;;8.80;99.90;;;;;;5128990;27;20258;-63
2024/03/20 09:49:30;;;;;;;26.63;15.00;;;8.80;99.90;;;;;;5128384;27;20181;-62
2024/03/20 09:51:57;;;;;;;26.13;15.57;;;8.80;99.90;;;;;;5129646;27;20387;-62
2024/03/20 09:54:25;;;;;;;28.13;15.27;;;8.80;99.90;;;;;;5130839;27;20710;-62
2024/03/20 09:56:51;;;;;;;27.70;15.27;;;8.80;99.90;;;;;;5126893;27;20205;-62
2024/03/20 09:59:19;;;;;;;24.37;15.07;;;8.80;99.90;;;;;;5135015;27;20194;-62
2024/03/20 10:01:45;;;;;;;26.40;15.60;;;8.80;99.90;;;;;;5126066;27;20203;-63
2024/03/20 10:04:13;;;;;;;28.97;15.93;;;8.90;99.90;;;;;;5125330;27;20582;-63
2024/03/20 10:06:40;;;;;;;24.80;14.53;;;8.90;99.90;;;;;;5120357;27;20202;-63
2024/03/20 10:09:09;;;;;;;27.50;15.53;;;8.90;99.90;;;;;;5128919;27;20256;-63
2024/03/20 10:11:35;;;;;;;27.67;14.77;;;9.00;99.90;;;;;;5127611;27;20720;-63
2024/03/20 10:14:02;;;;;;;25.80;14.20;;;9.10;99.90;;;;;;5125371;27;20218;-63
2024/03/20 10:16:31;;;;;;;26.73;15.30;;;9.20;99.90;;;;;;5130663;27;20190;-64
2024/03/20 10:19:00;;;;;;;27.97;15.60;;;9.20;99.90;;;;;;5129474;27;20316;-63
2024/03/20 10:21:28;;;;;;;29.37;15.87;;;9.20;99.90;;;;;;5121133;27;20247;-64
2024/03/20 10:23:55;;;;;;;28.90;15.30;;;9.10;99.90;;;;;;5120016;27;20586;-63
2024/03/20 10:26:21;;;;;;;26.80;15.07;;;9.10;99.90;;;;;;5129650;27;20674;-62
2024/03/20 10:28:51;;;;;;;29.17;17.40;;;9.10;99.90;;;;;;5130397;27;20290;-63
2024/03/20 10:31:21;;;;;;;29.17;16.10;;;9.00;99.90;;;;;;5124799;27;20245;-62
2024/03/20 10:33:51;;;;;;;29.23;15.77;;;9.00;99.90;;;;;;5129572;27;20212;-63
2024/03/20 10:36:18;;;;;;;24.80;14.37;;;9.00;99.90;;;;;;5115859;27;20281;-63
2024/03/20 10:38:46;;;;;;;26.80;15.33;;;9.10;99.90;;;;;;5117997;27;20195;-63
2024/03/20 10:41:14;;;;;;;24.50;15.00;;;9.10;99.90;;;;;;5117725;27;20194;-62
2024/03/20 10:43:44;;;;;;;23.97;14.37;;;9.20;99.90;;;;;;5110170;27;20183;-63
2024/03/20 10:46:14;;;;;;;26.13;16.10;;;9.30;99.90;;;;;;5116358;27;20203;-63
2024/03/20 10:48:42;;;;;;;26.47;15.43;;;9.30;99.90;;;;;;5120435;27;20188;-64
2024/03/20 10:51:13;;;;;;;22.50;13.13;;;9.40;99.90;;;;;;5117459;27;20201;-63
2024/03/20 10:53:40;;;;;;;20.83;12.60;;;9.40;99.90;;;;;;5117002;27;20202;-63
2024/03/20 10:56:07;;;;;;;24.83;14.57;;;9.60;99.90;;;;;;5114028;27;20204;-63
2024/03/20 10:58:35;;;;;;;30.23;15.90;;;9.90;99.90;;;;;;5115800;27;20248;-64
2024/03/20 11:01:01;;;;;;;23.47;13.60;;;10.30;99.00;;;;;;5110431;27;20187;-63
2024/03/20 11:03:47;;;;;;;22.40;12.87;;;11.00;98.60;;;;;;5115548;27;20479;-63
2024/03/20 11:06:39;;;;;;;25.63;14.30;;;11.60;97.80;;;;;;5100567;27;20651;-63
2024/03/20 11:09:22;;;;;;;19.83;12.77;;;12.20;96.60;;;;;;5104532;27;20193;-62
2024/03/20 11:11:50;;;;;;;20.93;13.03;;;12.70;95.80;;;;;;5102361;28;20214;-63
2024/03/20 11:14:25;;;;;;;17.73;12.33;;;12.80;94.90;;;;;;5107162;27;20237;-64
2024/03/20 11:16:52;;;;;;;24.17;13.30;;;12.80;94.50;;;;;;5099964;28;20614;-62
2024/03/20 11:19:20;;;;;;;16.17;10.83;;;12.80;93.90;;;;;;5106090;27;20209;-63
2024/03/20 11:21:49;;;;;;;14.43;9.73;;;13.10;94.10;;;;;;5109689;27;20192;-63
2024/03/20 11:24:17;;;;;;;13.83;9.50;;;14.40;93.70;;;;;;5106567;28;20229;-63
2024/03/20 11:26:43;;;;;;;23.57;13.63;;;15.50;92.20;;;;;;5107431;28;20505;-64
2024/03/20 11:29:11;;;;;;;20.97;12.30;;;15.90;89.30;;;;;;5101541;28;20185;-61
2024/03/20 11:31:38;;;;;;;19.73;11.80;;;15.90;88.40;;;;;;5099954;28;20194;-62
2024/03/20 11:34:06;;;;;;;16.13;10.90;;;16.00;88.10;;;;;;5099359;28;20254;-62
2024/03/20 11:36:32;;;;;;;19.70;12.17;;;16.00;88.00;;;;;;5102295;28;20205;-63
2024/03/20 11:39:07;;;;;;;19.27;11.27;;;15.90;87.30;;;;;;5108436;27;20186;-62
2024/03/20 11:41:34;;;;;;;16.43;11.13;;;15.80;85.40;;;;;;5108691;27;20189;-62
2024/03/20 11:44:02;;;;;;;20.00;13.57;;;15.50;85.70;;;;;;5107668;27;20213;-63
2024/03/20 11:46:28;;;;;;;20.77;13.33;;;15.10;84.00;;;;;;5104987;28;20236;-62
2024/03/20 11:48:56;;;;;;;24.77;13.23;;;14.80;85.40;;;;;;5101191;28;20611;-62
2024/03/20 11:51:25;;;;;;;22.53;14.07;;;14.70;85.10;;;;;;5107128;28;20225;-61
2024/03/20 11:53:53;;;;;;;20.23;13.33;;;14.70;84.70;;;;;;5107574;28;20243;-63
2024/03/20 11:56:22;;;;;;;17.67;10.93;;;14.70;84.50;;;;;;5106554;28;20300;-62
2024/03/20 11:58:50;;;;;;;17.20;11.40;;;14.60;84.80;;;;;;5104606;28;20587;-63
2024/03/20 12:01:18;;;;;;;18.53;11.50;;;14.90;85.40;;;;;;5102419;28;20281;-63
2024/03/20 12:03:47;;;;;;;19.40;12.17;;;15.80;84.70;;;;;;5104835;27;20233;-62
2024/03/20 12:06:16;;;;;;;22.47;13.70;;;16.90;82.20;;;;;;5099928;28;20282;-62
2024/03/20 12:08:44;;;;;;;18.77;11.97;;;17.80;77.30;;;;;;5092965;28;20188;-62
2024/03/20 12:11:24;;;;;;;18.77;12.57;;;18.30;75.50;;;;;;5099450;28;20560;-63
2024/03/20 12:13:53;;;;;;;13.67;10.27;;;18.90;74.30;;;;;;5097459;28;20253;-63
2024/03/20 12:16:20;;;;;;;18.73;11.80;;;19.50;73.00;;;;;;5107031;27;20407;-63
2024/03/20 12:18:48;;;;;;;16.67;11.20;;;19.90;70.10;;;;;;5120918;27;20200;-63
2024/03/20 12:21:16;;;;;;;21.77;12.97;;;20.00;68.30;;;;;;5104430;27;20209;-62
2024/03/20 12:23:45;;;;;;;23.47;12.40;;;20.00;66.10;;;;;;5100437;28;20230;-63
2024/03/20 12:26:12;;;;;;;18.80;11.63;;;19.80;64.50;;;;;;5107219;27;20796;-63
2024/03/20 12:28:40;;;;;;;19.60;12.23;;;19.50;64.00;;;;;;5104439;28;20269;-62
2024/03/20 12:31:15;;;;;;;16.43;11.63;;;18.60;63.70;;;;;;5096436;28;20192;-62
2024/03/20 12:33:43;;;;;;;17.47;11.63;;;17.50;64.70;;;;;;5104051;28;20173;-63
2024/03/20 12:36:09;;;;;;;15.67;10.93;;;16.60;66.50;;;;;;5103407;28;20184;-65
2024/03/20 12:38:37;;;;;;;12.20;9.07;;;15.90;70.60;;;;;;5103966;28;20291;-63
2024/03/20 12:41:06;;;;;;;16.63;11.47;;;15.60;72.90;;;;;;5100138;28;20191;-63
2024/03/20 12:43:33;;;;;;;16.63;9.40;;;15.50;73.40;;;;;;5098958;28;20616;-64
2024/03/20 12:46:01;;;;;;;14.83;9.83;;;15.20;73.40;;;;;;5104307;28;20220;-64
2024/03/20 12:48:28;;;;;;;13.83;10.07;;;15.60;74.10;;;;;;5104307;28;20233;-63